createdAt,value
2019-05-07T00:01:34.155Z,17.90
2019-05-07T00:04:07.727Z,16.33
2019-05-07T00:06:40.676Z,16.80
2019-05-07T00:09:13.667Z,18.93
2019-05-07T00:11:46.157Z,15.50
2019-05-07T00:14:18.691Z,15.33
2019-05-07T00:16:53.394Z,16.13
2019-05-07T00:19:27.091Z,17.97
2019-05-07T00:22:02.187Z,16.83
2019-05-07T00:24:35.182Z,15.83
2019-05-07T00:27:08.741Z,16.60
2019-05-07T00:29:42.857Z,17.20
2019-05-07T00:32:15.588Z,18.00
2019-05-07T00:34:57.528Z,16.87
2019-05-07T00:37:37.547Z,15.63
2019-05-07T00:40:23.482Z,16.83
2019-05-07T00:43:02.724Z,18.20
2019-05-07T00:45:45.619Z,16.93
2019-05-07T00:48:18.161Z,16.70
2019-05-07T00:50:55.693Z,16.60
2019-05-07T00:53:29.216Z,16.03
2019-05-07T00:56:02.367Z,17.47
2019-05-07T00:58:35.041Z,16.73
2019-05-07T01:01:08.136Z,16.90
2019-05-07T01:03:42.407Z,17.97
2019-05-07T01:06:15.176Z,15.13
2019-05-07T01:08:47.803Z,15.30
2019-05-07T01:11:22.696Z,16.17
2019-05-07T01:13:55.507Z,16.70
2019-05-07T01:16:28.652Z,15.90
2019-05-07T01:19:01.884Z,16.93
2019-05-07T01:21:34.749Z,16.57
2019-05-07T01:24:07.221Z,16.47
2019-05-07T01:26:39.635Z,18.27
2019-05-07T01:29:12.866Z,19.80
2019-05-07T01:31:55.067Z,17.97
2019-05-07T01:34:37.199Z,18.40
2019-05-07T01:37:09.750Z,19.60
2019-05-07T01:39:45.296Z,18.70
2019-05-07T01:42:17.724Z,18.23
2019-05-07T01:44:52.916Z,18.53
2019-05-07T01:47:26.006Z,19.10
2019-05-07T01:49:59.759Z,17.35
2019-05-07T01:52:33.181Z,20.23
2019-05-07T01:55:05.906Z,16.83
2019-05-07T01:57:38.571Z,17.97
2019-05-07T02:00:13.162Z,18.03
2019-05-07T02:02:53.195Z,21.20
2019-05-07T02:05:36.364Z,20.47
2019-05-07T02:08:18.426Z,18.27
2019-05-07T02:10:57.133Z,20.47
2019-05-07T02:13:29.808Z,17.02
2019-05-07T02:16:04.263Z,17.33
2019-05-07T02:18:37.792Z,17.60
2019-05-07T02:21:12.739Z,19.00
2019-05-07T02:23:45.472Z,18.07
2019-05-07T02:26:18.131Z,18.80
2019-05-07T02:28:51.847Z,19.23
2019-05-07T02:31:24.438Z,21.10
2019-05-07T02:33:57.177Z,19.77
2019-05-07T02:36:30.334Z,19.80
2019-05-07T02:39:16.598Z,17.90
2019-05-07T02:41:49.767Z,16.63
2019-05-07T02:44:23.199Z,17.40
2019-05-07T02:47:04.043Z,17.90
2019-05-07T02:49:46.792Z,15.70
2019-05-07T02:52:26.444Z,17.27
2019-05-07T02:55:06.685Z,16.63
2019-05-07T02:57:39.485Z,17.73
2019-05-07T03:00:14.587Z,16.83
2019-05-07T03:02:48.606Z,18.80
2019-05-07T03:05:23.209Z,14.97
2019-05-07T03:07:55.937Z,17.37
2019-05-07T03:10:28.714Z,16.70
2019-05-07T03:13:02.999Z,17.07
2019-05-07T03:15:36.127Z,16.93
2019-05-07T03:18:09.239Z,16.00
2019-05-07T03:20:48.910Z,18.73
2019-05-07T03:23:26.663Z,15.68
2019-05-07T03:26:08.263Z,18.03
2019-05-07T03:28:58.715Z,17.13
2019-05-07T03:31:49.258Z,17.80
2019-05-07T03:34:36.829Z,19.07
2019-05-07T03:37:14.012Z,16.97
2019-05-07T03:39:47.286Z,15.52
2019-05-07T03:42:20.133Z,15.33
2019-05-07T03:45:07.564Z,15.53
2019-05-07T03:47:43.884Z,16.60
2019-05-07T03:50:16.609Z,20.07
2019-05-07T03:52:49.193Z,18.57
2019-05-07T03:55:23.407Z,15.68
2019-05-07T03:57:56.221Z,16.03
2019-05-07T04:00:28.567Z,16.97
2019-05-07T04:03:03.623Z,16.10
2019-05-07T04:05:36.567Z,17.37
2019-05-07T04:08:09.263Z,17.83
2019-05-07T04:10:44.242Z,14.70
2019-05-07T04:13:17.255Z,18.93
2019-05-07T04:15:52.619Z,16.40
2019-05-07T04:18:25.474Z,17.83
2019-05-07T04:20:58.022Z,17.10
2019-05-07T04:23:33.755Z,15.20
2019-05-07T04:26:18.976Z,17.03
2019-05-07T04:28:57.020Z,17.03
2019-05-07T04:31:34.185Z,14.20
2019-05-07T04:34:14.955Z,15.70
2019-05-07T04:36:49.190Z,16.37
2019-05-07T04:39:23.199Z,16.53
2019-05-07T04:41:55.926Z,15.10
2019-05-07T04:44:28.524Z,13.77
2019-05-07T04:47:04.159Z,16.10
2019-05-07T04:49:37.190Z,17.40
2019-05-07T04:52:17.655Z,15.18
2019-05-07T04:54:52.801Z,15.40
2019-05-07T04:57:25.982Z,16.67
2019-05-07T04:59:58.737Z,15.60
2019-05-07T05:02:53.085Z,16.77
2019-05-07T05:05:26.062Z,17.27
2019-05-07T05:07:58.783Z,16.83
2019-05-07T05:10:33.680Z,18.70
2019-05-07T05:13:06.515Z,16.85
2019-05-07T05:15:39.898Z,17.97
2019-05-07T05:18:12.864Z,19.97
2019-05-07T05:21:03.441Z,16.50
2019-05-07T05:23:45.152Z,20.33
2019-05-07T05:26:18.498Z,18.60
2019-05-07T05:28:52.558Z,20.37
2019-05-07T05:31:25.262Z,17.60
2019-05-07T05:33:57.945Z,20.10
2019-05-07T05:36:33.036Z,16.27
2019-05-07T05:39:08.375Z,17.63
2019-05-07T05:41:44.015Z,15.85
2019-05-07T05:44:25.223Z,14.40
2019-05-07T05:46:57.908Z,14.43
2019-05-07T05:49:34.338Z,15.17
2019-05-07T05:52:17.115Z,18.00
2019-05-07T05:54:59.118Z,15.75
2019-05-07T05:57:37.348Z,17.40
2019-05-07T06:00:15.277Z,15.20
2019-05-07T06:03:09.005Z,16.47
2019-05-07T06:05:52.163Z,18.70
2019-05-07T06:08:32.558Z,19.10
2019-05-07T06:11:27.674Z,24.43
2019-05-07T06:14:06.730Z,23.23
2019-05-07T06:16:53.478Z,20.85
2019-05-07T06:19:46.804Z,23.87
2019-05-07T06:22:37.544Z,19.33
2019-05-07T06:25:15.392Z,22.90
2019-05-07T06:27:49.884Z,23.83
2019-05-07T06:30:24.083Z,28.00
2019-05-07T06:32:57.323Z,23.07
2019-05-07T06:35:33.408Z,20.40
2019-05-07T06:38:08.293Z,23.50
2019-05-07T06:40:52.295Z,26.43
2019-05-07T06:43:46.663Z,22.37
2019-05-07T06:46:20.443Z,22.20
2019-05-07T06:48:52.896Z,22.33
2019-05-07T06:51:25.543Z,20.20
2019-05-07T06:53:58.714Z,19.53
2019-05-07T06:56:32.708Z,21.77
2019-05-07T06:59:15.161Z,16.80
2019-05-07T07:01:54.156Z,18.50
2019-05-07T07:04:33.893Z,16.90
2019-05-07T07:07:26.668Z,14.50
2019-05-07T07:10:15.826Z,18.93
2019-05-07T07:12:48.364Z,14.23
2019-05-07T07:15:23.169Z,17.93
2019-05-07T07:17:56.647Z,18.20
2019-05-07T07:20:32.450Z,20.07
2019-05-07T07:23:05.280Z,16.73
2019-05-07T07:25:37.851Z,13.83
2019-05-07T07:28:12.301Z,15.75
2019-05-07T07:31:02.795Z,22.17
2019-05-07T07:33:38.964Z,19.37
2019-05-07T07:36:22.521Z,16.53
2019-05-07T07:38:57.265Z,20.17
2019-05-07T07:41:41.939Z,16.87
2019-05-07T07:44:14.795Z,18.30
2019-05-07T07:46:48.258Z,16.40
2019-05-07T07:49:22.259Z,18.00
2019-05-07T07:51:55.226Z,17.37
2019-05-07T07:54:27.803Z,16.83
2019-05-07T07:57:16.365Z,18.50
2019-05-07T08:00:04.190Z,17.85
2019-05-07T08:02:42.280Z,17.50
2019-05-07T08:05:15.189Z,19.00
2019-05-07T08:07:47.773Z,20.47
2019-05-07T08:10:22.143Z,19.20
2019-05-07T08:12:56.420Z,21.10
2019-05-07T08:15:29.023Z,18.63
2019-05-07T08:18:02.858Z,16.20
2019-05-07T08:20:36.032Z,17.53
2019-05-07T08:23:12.055Z,17.63
2019-05-07T08:25:48.332Z,17.87
2019-05-07T08:28:23.193Z,16.87
2019-05-07T08:31:15.178Z,16.73
2019-05-07T08:33:55.244Z,14.80
2019-05-07T08:36:27.899Z,12.70
2019-05-07T08:39:02.576Z,15.23
2019-05-07T08:41:36.340Z,21.17
2019-05-07T08:44:16.679Z,17.03
2019-05-07T08:47:07.304Z,16.00
2019-05-07T08:49:43.308Z,15.00
2019-05-07T08:52:16.503Z,15.77
2019-05-07T08:54:49.101Z,15.20
2019-05-07T08:57:22.776Z,15.60
2019-05-07T09:00:01.701Z,16.33
2019-05-07T09:02:37.087Z,14.90
2019-05-07T09:05:11.814Z,15.40
2019-05-07T09:07:44.946Z,19.37
2019-05-07T09:10:18.404Z,16.83
2019-05-07T09:12:52.724Z,15.17
2019-05-07T09:15:25.973Z,16.83
2019-05-07T09:17:59.338Z,14.93
2019-05-07T09:20:32.568Z,14.43
2019-05-07T09:23:05.879Z,16.42
2019-05-07T09:25:47.705Z,17.97
2019-05-07T09:28:22.290Z,14.30
2019-05-07T09:31:02.800Z,15.47
2019-05-07T09:33:39.518Z,18.10
2019-05-07T09:36:22.811Z,19.70
2019-05-07T09:38:59.310Z,18.73
2019-05-07T09:41:33.146Z,21.50
2019-05-07T09:44:05.628Z,18.10
2019-05-07T09:46:39.094Z,20.03
2019-05-07T09:49:12.061Z,20.00
2019-05-07T09:51:45.879Z,18.53
2019-05-07T09:54:19.395Z,20.10
2019-05-07T09:56:52.606Z,18.47
2019-05-07T09:59:35.868Z,20.23
2019-05-07T10:02:09.387Z,20.27
2019-05-07T10:04:42.156Z,22.50
2019-05-07T10:07:16.427Z,23.37
2019-05-07T10:09:49.151Z,22.20
2019-05-07T10:12:37.361Z,25.50
2019-05-07T10:15:13.235Z,21.77
2019-05-07T10:17:53.509Z,24.33
2019-05-07T10:20:26.077Z,20.00
2019-05-07T10:22:58.728Z,22.53
2019-05-07T10:25:39.377Z,18.77
2019-05-07T10:28:12.617Z,14.00
2019-05-07T10:30:45.747Z,12.53
2019-05-07T10:33:22.694Z,16.33
2019-05-07T10:35:56.250Z,17.07
2019-05-07T10:38:29.127Z,16.23
2019-05-07T10:41:05.776Z,13.80
2019-05-07T10:43:47.224Z,13.40
2019-05-07T10:46:34.931Z,18.27
2019-05-07T10:49:14.407Z,18.80
2019-05-07T10:51:48.920Z,18.67
2019-05-07T10:54:22.813Z,17.77
2019-05-07T10:56:55.409Z,19.50
2019-05-07T10:59:29.174Z,19.23
2019-05-07T11:02:12.702Z,19.67
2019-05-07T11:04:45.935Z,21.00
2019-05-07T11:07:22.220Z,20.57
2019-05-07T11:09:56.723Z,18.93
2019-05-07T11:12:31.909Z,21.33
2019-05-07T11:15:08.157Z,20.90
2019-05-07T11:17:58.228Z,22.37
2019-05-07T11:20:32.132Z,22.47
2019-05-07T11:23:04.692Z,22.67
2019-05-07T11:25:39.339Z,22.57
2019-05-07T11:28:13.077Z,22.83
2019-05-07T11:30:47.996Z,19.58
2019-05-07T11:33:32.590Z,22.27
2019-05-07T11:36:05.388Z,21.33
2019-05-07T11:38:41.802Z,20.70
2019-05-07T11:41:32.674Z,23.93
2019-05-07T11:44:12.415Z,22.93
2019-05-07T11:47:06.951Z,21.60
2019-05-07T11:50:15.753Z,16.58
2019-05-07T11:52:56.521Z,21.80
2019-05-07T11:55:30.915Z,17.83
2019-05-07T11:58:03.584Z,19.57
2019-05-07T12:00:43.507Z,25.97
2019-05-07T12:03:16.580Z,20.07
2019-05-07T12:05:52.652Z,20.20
2019-05-07T12:08:37.244Z,19.40
2019-05-07T12:11:14.642Z,21.83
2019-05-07T12:13:49.385Z,17.90
2019-05-07T12:16:22.351Z,23.30
2019-05-07T12:18:56.320Z,19.40
2019-05-07T12:21:30.160Z,19.47
2019-05-07T12:24:03.629Z,16.80
2019-05-07T12:26:41.738Z,17.45
2019-05-07T12:29:15.199Z,17.62
2019-05-07T12:31:55.679Z,15.80
2019-05-07T12:34:36.389Z,15.00
2019-05-07T12:37:12.104Z,17.20
2019-05-07T12:39:45.229Z,16.17
2019-05-07T12:42:18.357Z,14.50
2019-05-07T12:45:07.429Z,16.93
2019-05-07T12:47:42.142Z,16.03
2019-05-07T12:50:16.635Z,16.73
2019-05-07T12:52:56.880Z,14.97
2019-05-07T12:55:45.077Z,17.73
2019-05-07T12:58:21.778Z,14.70
2019-05-07T13:01:14.167Z,13.47
2019-05-07T13:03:59.060Z,13.23
2019-05-07T13:06:40.654Z,12.13
2019-05-07T13:09:14.795Z,18.07
2019-05-07T13:11:49.674Z,14.73
2019-05-07T13:14:31.378Z,13.77
2019-05-07T13:17:05.910Z,14.93
2019-05-07T13:19:41.864Z,17.73
2019-05-07T13:22:14.735Z,14.10
2019-05-07T13:24:48.973Z,12.27
2019-05-07T13:27:22.396Z,13.07
2019-05-07T13:29:57.689Z,15.37
2019-05-07T13:32:31.997Z,15.20
2019-05-07T13:35:08.183Z,16.10
2019-05-07T13:37:46.882Z,17.83
2019-05-07T13:40:31.561Z,15.90
2019-05-07T13:43:23.123Z,19.57
2019-05-07T13:46:02.539Z,17.85
2019-05-07T13:48:38.246Z,18.13
2019-05-07T13:51:12.324Z,18.00
2019-05-07T13:53:46.879Z,15.60
2019-05-07T13:56:19.649Z,15.53
2019-05-07T13:58:52.995Z,17.13
2019-05-07T14:01:41.139Z,17.50
2019-05-07T14:04:13.863Z,22.23
2019-05-07T14:06:49.119Z,21.03
2019-05-07T14:09:27.015Z,15.83
2019-05-07T14:12:02.033Z,15.53
2019-05-07T14:14:37.229Z,13.13
2019-05-07T14:17:15.611Z,14.93
2019-05-07T14:19:52.870Z,12.70
2019-05-07T14:22:26.389Z,11.70
2019-05-07T14:25:00.929Z,11.20
2019-05-07T14:27:37.191Z,12.97
2019-05-07T14:30:13.353Z,11.43
2019-05-07T14:32:55.571Z,10.13
2019-05-07T14:35:40.754Z,10.60
2019-05-07T14:38:27.565Z,10.23
2019-05-07T14:41:02.656Z,9.70
2019-05-07T14:43:52.362Z,11.47
2019-05-07T14:46:25.087Z,9.83
2019-05-07T14:48:57.648Z,10.53
2019-05-07T14:51:32.661Z,9.93
2019-05-07T14:54:06.400Z,10.07
2019-05-07T14:56:38.952Z,10.17
2019-05-07T14:59:12.989Z,9.57
2019-05-07T15:01:49.409Z,8.67
2019-05-07T15:04:22.208Z,10.33
2019-05-07T15:06:54.904Z,8.37
2019-05-07T15:09:28.435Z,8.47
2019-05-07T15:12:02.283Z,8.73
2019-05-07T15:14:34.901Z,8.87
2019-05-07T15:17:29.585Z,10.87
2019-05-07T15:20:03.379Z,9.40
2019-05-07T15:22:53.218Z,11.40
2019-05-07T15:25:26.918Z,12.77
2019-05-07T15:28:01.630Z,12.37
2019-05-07T15:30:47.922Z,11.40
2019-05-07T15:33:21.795Z,8.40
2019-05-07T15:35:55.147Z,6.55
2019-05-07T15:38:28.303Z,8.53
2019-05-07T15:41:02.201Z,7.67
2019-05-07T15:43:35.344Z,8.93
2019-05-07T15:46:23.571Z,10.67
2019-05-07T15:48:56.057Z,10.60
2019-05-07T15:51:29.272Z,10.80
2019-05-07T15:54:04.842Z,9.97
2019-05-07T15:56:41.678Z,9.45
2019-05-07T15:59:22.489Z,9.60
2019-05-07T16:02:18.640Z,9.03
2019-05-07T16:04:57.219Z,11.20
2019-05-07T16:07:37.471Z,10.33
2019-05-07T16:10:15.452Z,9.93
2019-05-07T16:12:53.758Z,8.43
2019-05-07T16:15:33.284Z,8.53
2019-05-07T16:18:17.625Z,12.77
2019-05-07T16:20:54.764Z,10.83
2019-05-07T16:23:32.793Z,9.00
2019-05-07T16:26:12.917Z,10.37
2019-05-07T16:28:46.114Z,9.10
2019-05-07T16:31:18.841Z,9.20
2019-05-07T16:33:52.163Z,12.83
2019-05-07T16:36:24.926Z,8.25
2019-05-07T16:38:59.326Z,9.17
2019-05-07T16:41:32.127Z,9.63
2019-05-07T16:44:06.535Z,9.10
2019-05-07T16:46:42.121Z,9.60
2019-05-07T16:49:16.659Z,10.87
2019-05-07T16:51:52.494Z,11.73
2019-05-07T16:54:29.544Z,10.37
2019-05-07T16:57:07.547Z,9.90
2019-05-07T16:59:44.980Z,11.03
2019-05-07T17:02:25.413Z,11.07
2019-05-07T17:05:05.212Z,10.27
2019-05-07T17:07:49.145Z,9.43
2019-05-07T17:10:23.273Z,10.57
2019-05-07T17:13:02.925Z,8.55
2019-05-07T17:15:45.385Z,9.80
2019-05-07T17:18:17.972Z,10.23
2019-05-07T17:20:53.497Z,9.03
2019-05-07T17:23:39.802Z,12.77
2019-05-07T17:26:16.876Z,9.57
2019-05-07T17:28:53.794Z,9.90
2019-05-07T17:31:28.314Z,11.03
2019-05-07T17:34:04.386Z,10.17
2019-05-07T17:36:37.847Z,9.30
2019-05-07T17:39:12.739Z,9.03
2019-05-07T17:41:46.316Z,9.80
2019-05-07T17:44:20.029Z,8.85
2019-05-07T17:47:06.094Z,11.70
2019-05-07T17:49:39.381Z,11.77
2019-05-07T17:52:12.939Z,10.43
2019-05-07T17:54:46.907Z,7.90
2019-05-07T17:57:23.564Z,10.02
2019-05-07T17:59:56.110Z,9.73
2019-05-07T18:02:48.757Z,9.57
2019-05-07T18:05:21.321Z,8.87
2019-05-07T18:07:57.028Z,10.93
2019-05-07T18:10:31.748Z,10.50
2019-05-07T18:13:08.168Z,9.20
2019-05-07T18:15:42.821Z,9.37
2019-05-07T18:18:16.967Z,11.13
2019-05-07T18:20:52.538Z,9.37
2019-05-07T18:23:28.268Z,9.40
2019-05-07T18:26:01.802Z,9.07
2019-05-07T18:28:36.035Z,6.90
2019-05-07T18:31:12.237Z,8.63
2019-05-07T18:33:52.427Z,8.17
2019-05-07T18:36:27.564Z,11.17
2019-05-07T18:39:03.044Z,8.90
2019-05-07T18:41:36.218Z,9.43
2019-05-07T18:44:12.700Z,8.00
2019-05-07T18:46:52.693Z,7.90
2019-05-07T18:49:27.419Z,9.27
2019-05-07T18:51:59.976Z,9.03
2019-05-07T18:54:32.674Z,8.80
2019-05-07T18:57:05.482Z,8.33
2019-05-07T18:59:39.125Z,6.68
2019-05-07T19:02:15.415Z,7.10
2019-05-07T19:04:48.228Z,8.73
2019-05-07T19:07:22.820Z,8.60
2019-05-07T19:09:55.825Z,8.67
2019-05-07T19:12:34.208Z,8.90
2019-05-07T19:15:16.078Z,5.93
2019-05-07T19:17:48.882Z,5.82
2019-05-07T19:20:22.544Z,8.97
2019-05-07T19:22:55.931Z,9.40
2019-05-07T19:25:29.652Z,7.40
2019-05-07T19:28:05.351Z,8.67
2019-05-07T19:30:38.394Z,7.23
2019-05-07T19:33:12.476Z,7.70
2019-05-07T19:35:48.520Z,6.12
2019-05-07T19:38:21.293Z,4.80
2019-05-07T19:40:55.511Z,6.60
2019-05-07T19:43:36.112Z,8.00
2019-05-07T19:46:12.112Z,6.73
2019-05-07T19:48:52.106Z,7.00
2019-05-07T19:51:26.220Z,5.53
2019-05-07T19:54:02.317Z,7.17
2019-05-07T19:56:36.018Z,7.07
2019-05-07T19:59:08.504Z,7.23
2019-05-07T20:01:48.849Z,6.13
2019-05-07T20:04:22.369Z,8.37
2019-05-07T20:06:59.268Z,6.70
2019-05-07T20:09:37.719Z,8.20
2019-05-07T20:12:11.227Z,6.20
2019-05-07T20:14:44.421Z,6.50
2019-05-07T20:17:23.360Z,8.13
2019-05-07T20:19:56.924Z,6.27
2019-05-07T20:22:33.208Z,9.57
2019-05-07T20:25:16.372Z,9.00
2019-05-07T20:27:52.731Z,6.07
2019-05-07T20:30:26.359Z,7.37
2019-05-07T20:32:58.972Z,7.03
2019-05-07T20:35:32.893Z,7.20
2019-05-07T20:38:09.195Z,6.10
2019-05-07T20:40:42.630Z,10.80
2019-05-07T20:43:23.587Z,8.10
2019-05-07T20:46:02.573Z,8.63
2019-05-07T20:48:36.130Z,6.83
2019-05-07T20:51:12.202Z,9.13
2019-05-07T20:53:52.253Z,7.60
2019-05-07T20:56:32.106Z,8.40
2019-05-07T20:59:06.985Z,8.37
2019-05-07T21:01:42.450Z,8.43
2019-05-07T21:04:15.793Z,6.47
2019-05-07T21:06:52.529Z,6.70
2019-05-07T21:09:26.337Z,7.03
2019-05-07T21:11:59.141Z,7.67
2019-05-07T21:14:32.469Z,8.37
2019-05-07T21:17:05.294Z,6.63
2019-05-07T21:19:38.578Z,8.73
2019-05-07T21:22:13.149Z,6.67
2019-05-07T21:24:47.057Z,7.77
2019-05-07T21:27:20.837Z,7.90
2019-05-07T21:29:56.697Z,7.53
2019-05-07T21:32:32.544Z,6.72
2019-05-07T21:35:07.254Z,5.78
2019-05-07T21:37:41.801Z,7.90
2019-05-07T21:40:15.725Z,9.70
2019-05-07T21:42:49.051Z,6.50
2019-05-07T21:45:23.582Z,6.47
2019-05-07T21:47:57.887Z,5.50
2019-05-07T21:50:33.273Z,4.93
2019-05-07T21:53:17.956Z,5.30
2019-05-07T21:56:13.876Z,6.83
2019-05-07T21:59:04.762Z,5.73
2019-05-07T22:01:43.689Z,8.47
2019-05-07T22:04:17.465Z,6.00
2019-05-07T22:06:52.445Z,6.43
2019-05-07T22:09:25.719Z,7.32
2019-05-07T22:12:00.090Z,6.60
2019-05-07T22:14:34.101Z,4.97
2019-05-07T22:17:06.846Z,7.17
2019-05-07T22:19:40.118Z,7.53
2019-05-07T22:22:12.748Z,9.33
2019-05-07T22:24:49.364Z,6.27
2019-05-07T22:27:22.263Z,8.80
2019-05-07T22:29:55.938Z,6.33
2019-05-07T22:32:48.479Z,8.70
2019-05-07T22:35:25.602Z,6.47
2019-05-07T22:37:58.893Z,6.70
2019-05-07T22:40:32.628Z,4.30
2019-05-07T22:43:06.625Z,7.07
2019-05-07T22:45:39.953Z,5.73
2019-05-07T22:48:12.687Z,8.10
2019-05-07T22:50:46.515Z,4.87
2019-05-07T22:53:19.165Z,6.80
2019-05-07T22:55:52.585Z,5.30
2019-05-07T22:58:32.639Z,6.30
2019-05-07T23:01:08.190Z,7.03
2019-05-07T23:03:42.974Z,4.97
2019-05-07T23:06:15.748Z,7.10
2019-05-07T23:08:48.544Z,5.60
2019-05-07T23:11:22.973Z,6.83
2019-05-07T23:13:56.916Z,5.40
2019-05-07T23:16:32.461Z,5.77
2019-05-07T23:19:05.331Z,4.78
2019-05-07T23:21:37.942Z,5.87
2019-05-07T23:24:10.558Z,5.60
2019-05-07T23:26:50.340Z,6.23
2019-05-07T23:29:25.455Z,6.73
2019-05-07T23:31:58.102Z,5.93
2019-05-07T23:34:39.294Z,4.97
2019-05-07T23:37:13.324Z,6.50
2019-05-07T23:39:51.844Z,4.57
2019-05-07T23:42:30.317Z,5.83
2019-05-07T23:45:04.664Z,4.77
2019-05-07T23:47:44.487Z,5.10
2019-05-07T23:50:21.530Z,5.93
2019-05-07T23:52:54.749Z,6.43
2019-05-07T23:55:29.328Z,5.53
2019-05-07T23:58:03.101Z,5.77
